createdAt,value
2022-12-17T00:01:40.946Z,1.20
2022-12-17T00:06:42.428Z,1.19
2022-12-17T00:11:43.893Z,1.25
2022-12-17T00:16:45.364Z,1.29
2022-12-17T00:21:46.883Z,1.39
2022-12-17T00:26:48.324Z,1.36
2022-12-17T00:31:49.876Z,1.29
2022-12-17T00:36:51.460Z,1.20
2022-12-17T00:41:53.555Z,1.11
2022-12-17T00:46:55.186Z,1.11
2022-12-17T00:51:57.161Z,1.15
2022-12-17T00:56:59.021Z,1.09
2022-12-17T01:02:00.589Z,0.97
2022-12-17T01:07:02.179Z,0.95
2022-12-17T01:12:05.304Z,0.97
2022-12-17T01:17:07.030Z,1.07
2022-12-17T01:22:09.109Z,1.16
2022-12-17T01:27:11.733Z,1.17
2022-12-17T01:32:13.260Z,1.07
2022-12-17T01:37:14.829Z,1.01
2022-12-17T01:42:16.268Z,1.01
2022-12-17T01:47:20.926Z,1.09
2022-12-17T01:52:23.022Z,1.06
2022-12-17T01:57:25.775Z,1.02
2022-12-17T02:02:27.350Z,1.07
2022-12-17T02:07:40.259Z,1.12
2022-12-17T02:12:51.003Z,1.09
2022-12-17T02:17:58.047Z,1.06
2022-12-17T02:23:29.481Z,0.93
2022-12-17T02:28:34.074Z,0.94
2022-12-17T02:33:37.871Z,0.95
2022-12-17T02:38:40.586Z,0.98
2022-12-17T02:43:42.458Z,0.88
2022-12-17T02:48:43.957Z,0.93
2022-12-17T02:53:51.272Z,0.81
2022-12-17T02:58:52.765Z,0.76
2022-12-17T03:03:54.454Z,0.85
2022-12-17T03:08:56.840Z,0.85
2022-12-17T03:13:58.959Z,0.82
2022-12-17T03:19:01.006Z,0.80
2022-12-17T03:24:02.446Z,0.78
2022-12-17T03:29:03.981Z,0.65
2022-12-17T03:34:05.444Z,0.55
2022-12-17T03:39:07.076Z,0.41
2022-12-17T03:44:08.525Z,0.22
2022-12-17T03:49:10.357Z,0.09
2022-12-17T03:54:11.912Z,-0.01
2022-12-17T03:59:13.781Z,-0.05
2022-12-17T04:04:15.265Z,-0.17
2022-12-17T04:09:16.769Z,-0.30
2022-12-17T04:14:18.327Z,-0.46
2022-12-17T04:19:19.815Z,-0.59
2022-12-17T04:24:21.324Z,-0.56
2022-12-17T04:29:22.835Z,-0.67
2022-12-17T04:34:24.321Z,-0.88
2022-12-17T04:39:25.738Z,-1.09
2022-12-17T04:44:27.168Z,-1.00
2022-12-17T04:49:28.613Z,-0.98
2022-12-17T04:54:30.126Z,-1.08
2022-12-17T04:59:31.656Z,-1.09
2022-12-17T05:04:34.605Z,-1.02
2022-12-17T05:09:36.060Z,-1.01
2022-12-17T05:14:37.472Z,-1.08
2022-12-17T05:19:39.038Z,-1.10
2022-12-17T05:24:40.476Z,-1.02
2022-12-17T05:29:42.028Z,-0.95
2022-12-17T05:34:43.509Z,-1.02
2022-12-17T05:39:44.964Z,-0.83
2022-12-17T05:44:46.443Z,-0.87
2022-12-17T05:49:47.924Z,-0.84
2022-12-17T05:54:49.385Z,-0.74
2022-12-17T05:59:50.812Z,-0.58
2022-12-17T06:04:52.241Z,-0.55
2022-12-17T06:09:53.663Z,-0.51
2022-12-17T06:14:55.076Z,-0.48
2022-12-17T06:19:56.543Z,-0.56
2022-12-17T06:24:58.048Z,-0.67
2022-12-17T06:29:59.511Z,-0.67
2022-12-17T06:35:00.933Z,-0.54
2022-12-17T06:40:02.461Z,-0.48
2022-12-17T06:45:04.246Z,-0.52
2022-12-17T06:50:06.351Z,-0.71
2022-12-17T06:55:08.250Z,-0.76
2022-12-17T07:00:10.384Z,-0.73
2022-12-17T07:05:11.928Z,-0.60
2022-12-17T07:10:14.524Z,-0.46
2022-12-17T07:15:16.220Z,-0.39
2022-12-17T07:20:17.645Z,-0.45
2022-12-17T07:25:19.114Z,-0.43
2022-12-17T07:30:20.630Z,-0.41
2022-12-17T07:35:22.204Z,-0.39
2022-12-17T07:40:23.686Z,-0.30
2022-12-17T07:45:25.377Z,-0.33
2022-12-17T07:50:26.981Z,-0.26
2022-12-17T07:55:28.567Z,-0.24
2022-12-17T08:00:30.147Z,-0.26
2022-12-17T08:05:31.547Z,-0.27
2022-12-17T08:10:33.026Z,-0.32
2022-12-17T08:15:34.432Z,-0.34
2022-12-17T08:20:35.852Z,-0.43
2022-12-17T08:25:37.322Z,-0.38
2022-12-17T08:30:38.895Z,-0.33
2022-12-17T08:35:40.426Z,-0.26
2022-12-17T08:40:41.847Z,-0.19
2022-12-17T08:45:50.426Z,-0.28
2022-12-17T08:50:52.328Z,-0.28
2022-12-17T08:55:53.764Z,-0.21
2022-12-17T09:00:59.261Z,-0.18
2022-12-17T09:06:00.791Z,-0.08
2022-12-17T09:11:02.282Z,-0.08
2022-12-17T09:16:03.946Z,-0.04
2022-12-17T09:21:05.650Z,0.05
2022-12-17T09:26:07.311Z,0.20
2022-12-17T09:31:08.963Z,0.33
2022-12-17T09:36:10.562Z,0.43
2022-12-17T09:41:31.890Z,0.55
2022-12-17T09:46:45.134Z,0.64
2022-12-17T09:51:46.749Z,0.69
2022-12-17T09:56:49.099Z,0.71
2022-12-17T10:01:50.679Z,0.70
2022-12-17T10:06:52.233Z,0.77
2022-12-17T10:11:54.525Z,0.75
2022-12-17T10:16:56.014Z,0.87
2022-12-17T10:22:07.441Z,0.89
2022-12-17T10:27:10.524Z,0.90
2022-12-17T10:32:14.927Z,0.97
2022-12-17T10:37:20.630Z,0.94
2022-12-17T10:42:28.082Z,0.99
2022-12-17T10:47:33.777Z,1.03
2022-12-17T10:52:36.773Z,1.02
2022-12-17T10:57:38.702Z,1.07
2022-12-17T11:02:48.248Z,1.18
2022-12-17T11:07:50.036Z,1.19
2022-12-17T11:12:56.386Z,1.15
2022-12-17T11:17:58.767Z,1.19
2022-12-17T11:23:01.029Z,1.25
2022-12-17T11:28:15.370Z,1.27
2022-12-17T11:33:21.711Z,1.24
2022-12-17T11:38:44.160Z,1.16
2022-12-17T11:43:59.964Z,1.05
2022-12-17T11:49:14.186Z,1.09
2022-12-17T11:54:27.017Z,1.18
2022-12-17T11:59:31.565Z,1.20
2022-12-17T12:05:05.117Z,1.24
2022-12-17T12:10:19.440Z,1.28
2022-12-17T12:15:53.989Z,1.25
2022-12-17T12:21:25.476Z,1.27
2022-12-17T12:26:50.368Z,1.20
2022-12-17T12:32:13.459Z,1.17
2022-12-17T12:37:18.134Z,1.17
2022-12-17T12:42:25.059Z,1.16
2022-12-17T12:47:45.971Z,1.18
2022-12-17T12:52:47.724Z,1.10
2022-12-17T12:58:23.015Z,1.06
2022-12-17T13:03:31.173Z,1.03
2022-12-17T13:08:34.731Z,1.05
2022-12-17T13:13:42.419Z,1.06
2022-12-17T13:18:43.907Z,0.95
2022-12-17T13:23:45.372Z,0.81
2022-12-17T13:29:28.910Z,0.72
2022-12-17T13:34:42.446Z,0.81
2022-12-17T13:40:15.870Z,0.97
2022-12-17T13:45:21.940Z,1.11
2022-12-17T13:50:35.613Z,1.15
2022-12-17T13:55:38.107Z,1.15
2022-12-17T14:00:39.560Z,1.10
2022-12-17T14:05:44.287Z,1.00
2022-12-17T14:10:54.403Z,0.97
2022-12-17T14:15:55.855Z,0.93
2022-12-17T14:20:57.402Z,0.85
2022-12-17T14:25:59.424Z,0.82
2022-12-17T14:31:28.736Z,0.72
2022-12-17T14:36:32.023Z,0.74
2022-12-17T14:41:37.817Z,0.76
2022-12-17T14:46:39.310Z,0.76
2022-12-17T14:51:42.483Z,0.72
2022-12-17T14:56:46.458Z,0.61
2022-12-17T15:01:54.152Z,0.58
2022-12-17T15:06:57.348Z,0.53
2022-12-17T15:11:58.821Z,0.39
2022-12-17T15:17:00.330Z,0.35
2022-12-17T15:22:03.934Z,0.29
2022-12-17T15:27:05.439Z,0.22
2022-12-17T15:32:06.977Z,0.20
2022-12-17T15:37:08.464Z,0.22
2022-12-17T15:42:10.141Z,0.23
2022-12-17T15:47:11.635Z,0.19
2022-12-17T15:52:13.148Z,0.17
2022-12-17T15:57:18.570Z,0.17
2022-12-17T16:02:20.502Z,0.20
2022-12-17T16:07:22.099Z,0.19
2022-12-17T16:12:23.531Z,0.17
2022-12-17T16:17:25.015Z,0.24
2022-12-17T16:22:27.974Z,0.26
2022-12-17T16:27:29.462Z,0.27
2022-12-17T16:32:36.091Z,0.22
2022-12-17T16:37:38.144Z,0.29
2022-12-17T16:42:39.603Z,0.35
2022-12-17T16:47:41.051Z,0.27
2022-12-17T16:52:42.460Z,0.27
2022-12-17T16:57:43.953Z,0.29
2022-12-17T17:02:49.879Z,0.37
2022-12-17T17:07:54.366Z,0.46
2022-12-17T17:12:55.927Z,0.40
2022-12-17T17:18:02.027Z,0.33
2022-12-17T17:23:04.372Z,0.31
2022-12-17T17:28:05.851Z,0.25
2022-12-17T17:33:07.347Z,0.27
2022-12-17T17:38:08.813Z,0.33
2022-12-17T17:43:10.249Z,0.38
2022-12-17T17:48:11.709Z,0.41
2022-12-17T17:53:13.130Z,0.42
2022-12-17T17:58:14.581Z,0.45
2022-12-17T18:03:16.133Z,0.39
2022-12-17T18:08:17.702Z,0.42
2022-12-17T18:13:19.161Z,0.52
2022-12-17T18:18:20.588Z,0.50
2022-12-17T18:23:22.024Z,0.50
2022-12-17T18:28:23.483Z,0.43
2022-12-17T18:33:24.916Z,0.45
2022-12-17T18:38:26.403Z,0.45
2022-12-17T18:43:27.819Z,0.43
2022-12-17T18:48:29.411Z,0.44
2022-12-17T18:53:30.848Z,0.43
2022-12-17T18:58:32.312Z,0.43
2022-12-17T19:03:34.068Z,0.41
2022-12-17T19:08:36.077Z,0.48
2022-12-17T19:13:38.191Z,0.54
2022-12-17T19:18:40.646Z,0.52
2022-12-17T19:23:42.288Z,0.52
2022-12-17T19:28:46.358Z,0.55
2022-12-17T19:33:47.976Z,0.55
2022-12-17T19:38:54.351Z,0.53
2022-12-17T19:43:58.098Z,0.59
2022-12-17T19:49:00.005Z,0.62
2022-12-17T19:54:08.115Z,0.61
2022-12-17T19:59:12.336Z,0.44
2022-12-17T20:04:15.523Z,0.45
2022-12-17T20:09:17.017Z,0.50
2022-12-17T20:14:22.365Z,0.59
2022-12-17T20:19:26.830Z,0.50
2022-12-17T20:24:31.509Z,0.53
2022-12-17T20:29:33.163Z,0.51
2022-12-17T20:34:34.700Z,0.47
2022-12-17T20:39:36.228Z,0.40
2022-12-17T20:44:37.709Z,0.37
2022-12-17T20:49:39.198Z,0.30
2022-12-17T20:54:40.612Z,0.36
2022-12-17T20:59:42.061Z,0.39
2022-12-17T21:04:43.594Z,0.36
2022-12-17T21:09:45.098Z,0.36
2022-12-17T21:14:46.526Z,0.31
2022-12-17T21:19:48.000Z,0.32
2022-12-17T21:24:49.530Z,0.26
2022-12-17T21:29:51.019Z,0.22
2022-12-17T21:34:52.536Z,0.20
2022-12-17T21:39:59.618Z,0.17
2022-12-17T21:45:01.459Z,0.22
2022-12-17T21:50:03.406Z,0.15
2022-12-17T21:55:05.361Z,0.19
2022-12-17T22:00:07.964Z,0.18
2022-12-17T22:05:12.614Z,0.16
2022-12-17T22:10:24.312Z,0.18
2022-12-17T22:15:48.182Z,0.09
2022-12-17T22:20:58.583Z,0.03
2022-12-17T22:26:00.088Z,-0.05
2022-12-17T22:31:06.102Z,-0.02
2022-12-17T22:38:49.490Z,0.06
2022-12-17T22:44:49.155Z,0.00
2022-12-17T22:46:52.031Z,-0.06
2022-12-17T22:51:53.547Z,-0.12
2022-12-17T22:57:20.941Z,-0.08
2022-12-17T23:02:16.642Z,-0.12
2022-12-17T23:07:18.244Z,-0.12
2022-12-17T23:12:19.723Z,-0.19
2022-12-17T23:17:21.215Z,-0.21
2022-12-17T23:22:22.662Z,-0.26
2022-12-17T23:27:24.185Z,-0.23
2022-12-17T23:32:26.246Z,-0.25
2022-12-17T23:37:27.665Z,-0.35
2022-12-17T23:42:29.118Z,-0.33
2022-12-17T23:47:31.391Z,-0.34
2022-12-17T23:52:32.883Z,-0.28
2022-12-17T23:57:34.300Z,-0.23
